sensor_id;sensor_type;location;lat;lon;timestamp;P1;durP1;ratioP1;P2;durP2;ratioP2
3543;SDS011;1786;52.870;9.578;2023-09-19T00:00:43;3.13;;;2.83;;
3543;SDS011;1786;52.870;9.578;2023-09-19T00:03:14;7.50;;;3.23;;
3543;SDS011;1786;52.870;9.578;2023-09-19T00:05:41;2.87;;;2.67;;
3543;SDS011;1786;52.870;9.578;2023-09-19T00:08:11;3.80;;;2.80;;
3543;SDS011;1786;52.870;9.578;2023-09-19T00:10:42;3.83;;;3.33;;
3543;SDS011;1786;52.870;9.578;2023-09-19T00:13:09;4.03;;;3.20;;
3543;SDS011;1786;52.870;9.578;2023-09-19T00:15:44;4.10;;;3.17;;
3543;SDS011;1786;52.870;9.578;2023-09-19T00:18:17;3.70;;;3.33;;
3543;SDS011;1786;52.870;9.578;2023-09-19T00:20:48;3.50;;;3.20;;
3543;SDS011;1786;52.870;9.578;2023-09-19T00:23:18;3.77;;;3.27;;
3543;SDS011;1786;52.870;9.578;2023-09-19T00:25:46;5.00;;;3.73;;
3543;SDS011;1786;52.870;9.578;2023-09-19T00:28:13;4.83;;;3.30;;
3543;SDS011;1786;52.870;9.578;2023-09-19T00:30:43;3.67;;;3.30;;
3543;SDS011;1786;52.870;9.578;2023-09-19T00:33:11;6.70;;;5.20;;
3543;SDS011;1786;52.870;9.578;2023-09-19T00:35:52;4.93;;;3.63;;
3543;SDS011;1786;52.870;9.578;2023-09-19T00:38:20;4.87;;;3.13;;
3543;SDS011;1786;52.870;9.578;2023-09-19T00:40:49;5.47;;;3.97;;
3543;SDS011;1786;52.870;9.578;2023-09-19T00:43:17;5.30;;;3.30;;
3543;SDS011;1786;52.870;9.578;2023-09-19T00:45:45;4.23;;;3.83;;
3543;SDS011;1786;52.870;9.578;2023-09-19T00:48:15;4.37;;;3.90;;
3543;SDS011;1786;52.870;9.578;2023-09-19T00:50:42;8.00;;;4.30;;
3543;SDS011;1786;52.870;9.578;2023-09-19T00:53:12;5.90;;;4.17;;
3543;SDS011;1786;52.870;9.578;2023-09-19T00:55:42;6.93;;;4.27;;
3543;SDS011;1786;52.870;9.578;2023-09-19T00:58:09;4.97;;;4.43;;
3543;SDS011;1786;52.870;9.578;2023-09-19T01:00:37;4.27;;;3.90;;
3543;SDS011;1786;52.870;9.578;2023-09-19T01:03:05;8.23;;;4.90;;
3543;SDS011;1786;52.870;9.578;2023-09-19T01:05:33;6.17;;;4.10;;
3543;SDS011;1786;52.870;9.578;2023-09-19T01:08:00;4.67;;;4.10;;
3543;SDS011;1786;52.870;9.578;2023-09-19T01:10:27;6.63;;;4.80;;
3543;SDS011;1786;52.870;9.578;2023-09-19T01:13:05;9.97;;;5.13;;
3543;SDS011;1786;52.870;9.578;2023-09-19T01:15:55;7.40;;;4.57;;
3543;SDS011;1786;52.870;9.578;2023-09-19T01:22:01;5.93;;;4.03;;
3543;SDS011;1786;52.870;9.578;2023-09-19T01:25:04;10.23;;;3.90;;
3543;SDS011;1786;52.870;9.578;2023-09-19T01:27:53;11.37;;;4.50;;
3543;SDS011;1786;52.870;9.578;2023-09-19T01:30:24;7.30;;;5.03;;
3543;SDS011;1786;52.870;9.578;2023-09-19T01:32:55;16.60;;;5.30;;
3543;SDS011;1786;52.870;9.578;2023-09-19T01:35:24;17.37;;;5.30;;
3543;SDS011;1786;52.870;9.578;2023-09-19T01:37:51;10.53;;;5.60;;
3543;SDS011;1786;52.870;9.578;2023-09-19T01:40:20;11.93;;;4.83;;
3543;SDS011;1786;52.870;9.578;2023-09-19T01:43:09;6.20;;;4.37;;
3543;SDS011;1786;52.870;9.578;2023-09-19T01:48:25;18.20;;;5.20;;
3543;SDS011;1786;52.870;9.578;2023-09-19T01:51:05;8.70;;;4.87;;
3543;SDS011;1786;52.870;9.578;2023-09-19T01:56:21;8.57;;;5.43;;
3543;SDS011;1786;52.870;9.578;2023-09-19T01:58:56;13.13;;;4.80;;
3543;SDS011;1786;52.870;9.578;2023-09-19T02:01:30;6.73;;;4.50;;
3543;SDS011;1786;52.870;9.578;2023-09-19T02:03:58;8.30;;;4.40;;
3543;SDS011;1786;52.870;9.578;2023-09-19T02:06:25;12.30;;;5.90;;
3543;SDS011;1786;52.870;9.578;2023-09-19T02:08:53;11.63;;;6.33;;
3543;SDS011;1786;52.870;9.578;2023-09-19T02:11:20;11.30;;;4.90;;
3543;SDS011;1786;52.870;9.578;2023-09-19T02:13:47;9.10;;;4.47;;
3543;SDS011;1786;52.870;9.578;2023-09-19T02:16:16;15.20;;;4.50;;
3543;SDS011;1786;52.870;9.578;2023-09-19T02:18:43;6.10;;;3.93;;
3543;SDS011;1786;52.870;9.578;2023-09-19T02:21:10;5.10;;;4.00;;
3543;SDS011;1786;52.870;9.578;2023-09-19T02:23:39;7.47;;;4.33;;
3543;SDS011;1786;52.870;9.578;2023-09-19T02:26:06;11.63;;;3.80;;
3543;SDS011;1786;52.870;9.578;2023-09-19T02:28:33;12.70;;;3.93;;
3543;SDS011;1786;52.870;9.578;2023-09-19T02:31:00;5.17;;;3.37;;
3543;SDS011;1786;52.870;9.578;2023-09-19T02:33:28;8.93;;;3.80;;
3543;SDS011;1786;52.870;9.578;2023-09-19T02:35:59;4.90;;;3.77;;
3543;SDS011;1786;52.870;9.578;2023-09-19T02:38:27;9.03;;;3.93;;
3543;SDS011;1786;52.870;9.578;2023-09-19T02:40:55;10.67;;;4.17;;
3543;SDS011;1786;52.870;9.578;2023-09-19T02:43:23;6.73;;;3.83;;
3543;SDS011;1786;52.870;9.578;2023-09-19T02:45:50;9.57;;;3.93;;
3543;SDS011;1786;52.870;9.578;2023-09-19T02:48:17;7.40;;;3.80;;
3543;SDS011;1786;52.870;9.578;2023-09-19T02:50:46;9.87;;;4.13;;
3543;SDS011;1786;52.870;9.578;2023-09-19T02:53:15;11.10;;;4.00;;
3543;SDS011;1786;52.870;9.578;2023-09-19T02:55:43;8.30;;;3.50;;
3543;SDS011;1786;52.870;9.578;2023-09-19T02:58:10;10.10;;;3.70;;
3543;SDS011;1786;52.870;9.578;2023-09-19T03:00:38;8.20;;;3.77;;
3543;SDS011;1786;52.870;9.578;2023-09-19T03:03:05;6.27;;;3.33;;
3543;SDS011;1786;52.870;9.578;2023-09-19T03:05:33;5.93;;;2.80;;
3543;SDS011;1786;52.870;9.578;2023-09-19T03:08:00;4.53;;;2.30;;
3543;SDS011;1786;52.870;9.578;2023-09-19T03:10:28;8.30;;;4.20;;
3543;SDS011;1786;52.870;9.578;2023-09-19T03:12:57;7.93;;;2.10;;
3543;SDS011;1786;52.870;9.578;2023-09-19T03:15:26;6.50;;;1.93;;
3543;SDS011;1786;52.870;9.578;2023-09-19T03:17:53;6.50;;;2.87;;
3543;SDS011;1786;52.870;9.578;2023-09-19T03:20:23;4.90;;;2.10;;
3543;SDS011;1786;52.870;9.578;2023-09-19T03:22:50;1.43;;;1.43;;
3543;SDS011;1786;52.870;9.578;2023-09-19T03:25:17;9.73;;;2.00;;
3543;SDS011;1786;52.870;9.578;2023-09-19T03:27:47;4.50;;;1.80;;
3543;SDS011;1786;52.870;9.578;2023-09-19T03:30:14;4.17;;;2.10;;
3543;SDS011;1786;52.870;9.578;2023-09-19T03:32:43;6.97;;;2.10;;
3543;SDS011;1786;52.870;9.578;2023-09-19T03:35:17;6.63;;;2.10;;
3543;SDS011;1786;52.870;9.578;2023-09-19T03:37:44;7.17;;;2.90;;
3543;SDS011;1786;52.870;9.578;2023-09-19T03:40:13;7.90;;;3.10;;
3543;SDS011;1786;52.870;9.578;2023-09-19T03:42:41;3.03;;;2.50;;
3543;SDS011;1786;52.870;9.578;2023-09-19T03:45:11;4.37;;;2.93;;
3543;SDS011;1786;52.870;9.578;2023-09-19T03:47:44;9.73;;;3.47;;
3543;SDS011;1786;52.870;9.578;2023-09-19T03:50:15;7.30;;;2.93;;
3543;SDS011;1786;52.870;9.578;2023-09-19T03:52:44;4.03;;;3.63;;
3543;SDS011;1786;52.870;9.578;2023-09-19T03:55:11;17.87;;;4.70;;
3543;SDS011;1786;52.870;9.578;2023-09-19T03:57:39;8.33;;;3.33;;
3543;SDS011;1786;52.870;9.578;2023-09-19T04:00:06;7.10;;;3.07;;
3543;SDS011;1786;52.870;9.578;2023-09-19T04:02:39;14.20;;;2.90;;
3543;SDS011;1786;52.870;9.578;2023-09-19T04:05:07;11.53;;;2.83;;
3543;SDS011;1786;52.870;9.578;2023-09-19T04:07:34;9.20;;;2.70;;
3543;SDS011;1786;52.870;9.578;2023-09-19T04:10:01;4.77;;;2.70;;
3543;SDS011;1786;52.870;9.578;2023-09-19T04:12:30;5.90;;;3.10;;
3543;SDS011;1786;52.870;9.578;2023-09-19T04:14:57;9.43;;;3.57;;
3543;SDS011;1786;52.870;9.578;2023-09-19T04:17:25;11.07;;;3.07;;
3543;SDS011;1786;52.870;9.578;2023-09-19T04:19:52;8.10;;;2.53;;
3543;SDS011;1786;52.870;9.578;2023-09-19T04:22:19;9.27;;;3.27;;
3543;SDS011;1786;52.870;9.578;2023-09-19T04:24:46;6.87;;;3.27;;
3543;SDS011;1786;52.870;9.578;2023-09-19T04:27:13;7.07;;;3.27;;
3543;SDS011;1786;52.870;9.578;2023-09-19T04:29:41;11.33;;;2.70;;
3543;SDS011;1786;52.870;9.578;2023-09-19T04:32:11;11.33;;;3.53;;
3543;SDS011;1786;52.870;9.578;2023-09-19T04:34:39;10.87;;;3.53;;
3543;SDS011;1786;52.870;9.578;2023-09-19T04:37:06;6.07;;;3.00;;
3543;SDS011;1786;52.870;9.578;2023-09-19T04:39:33;9.30;;;2.83;;
3543;SDS011;1786;52.870;9.578;2023-09-19T04:42:00;18.13;;;3.27;;
3543;SDS011;1786;52.870;9.578;2023-09-19T04:44:27;8.87;;;3.40;;
3543;SDS011;1786;52.870;9.578;2023-09-19T04:46:54;11.27;;;2.93;;
3543;SDS011;1786;52.870;9.578;2023-09-19T04:49:21;6.47;;;2.90;;
3543;SDS011;1786;52.870;9.578;2023-09-19T04:51:48;9.20;;;2.83;;
3543;SDS011;1786;52.870;9.578;2023-09-19T04:54:14;14.03;;;2.93;;
3543;SDS011;1786;52.870;9.578;2023-09-19T04:56:42;11.83;;;3.63;;
3543;SDS011;1786;52.870;9.578;2023-09-19T04:59:09;9.23;;;3.07;;
3543;SDS011;1786;52.870;9.578;2023-09-19T05:01:37;14.70;;;3.27;;
3543;SDS011;1786;52.870;9.578;2023-09-19T05:04:04;11.73;;;3.37;;
3543;SDS011;1786;52.870;9.578;2023-09-19T05:06:31;8.97;;;2.80;;
3543;SDS011;1786;52.870;9.578;2023-09-19T05:09:00;7.83;;;2.93;;
3543;SDS011;1786;52.870;9.578;2023-09-19T05:11:26;7.80;;;3.07;;
3543;SDS011;1786;52.870;9.578;2023-09-19T05:13:54;15.20;;;3.80;;
3543;SDS011;1786;52.870;9.578;2023-09-19T05:16:21;10.90;;;2.60;;
3543;SDS011;1786;52.870;9.578;2023-09-19T05:18:48;15.77;;;2.90;;
3543;SDS011;1786;52.870;9.578;2023-09-19T05:21:16;12.30;;;3.17;;
3543;SDS011;1786;52.870;9.578;2023-09-19T05:23:44;11.53;;;3.33;;
3543;SDS011;1786;52.870;9.578;2023-09-19T05:26:11;8.50;;;2.87;;
3543;SDS011;1786;52.870;9.578;2023-09-19T05:28:38;3.57;;;2.70;;
3543;SDS011;1786;52.870;9.578;2023-09-19T05:31:05;13.23;;;3.77;;
3543;SDS011;1786;52.870;9.578;2023-09-19T05:33:32;9.03;;;3.10;;
3543;SDS011;1786;52.870;9.578;2023-09-19T05:35:59;12.20;;;3.30;;
3543;SDS011;1786;52.870;9.578;2023-09-19T05:38:26;12.20;;;3.03;;
3543;SDS011;1786;52.870;9.578;2023-09-19T05:40:54;14.00;;;3.63;;
3543;SDS011;1786;52.870;9.578;2023-09-19T05:43:21;24.43;;;3.23;;
3543;SDS011;1786;52.870;9.578;2023-09-19T05:45:48;10.33;;;2.83;;
3543;SDS011;1786;52.870;9.578;2023-09-19T05:48:18;11.00;;;2.70;;
3543;SDS011;1786;52.870;9.578;2023-09-19T05:50:47;16.20;;;3.60;;
3543;SDS011;1786;52.870;9.578;2023-09-19T05:53:15;9.87;;;3.03;;
3543;SDS011;1786;52.870;9.578;2023-09-19T05:55:42;11.23;;;3.30;;
3543;SDS011;1786;52.870;9.578;2023-09-19T05:58:09;7.33;;;2.97;;
3543;SDS011;1786;52.870;9.578;2023-09-19T06:00:37;10.47;;;2.90;;
3543;SDS011;1786;52.870;9.578;2023-09-19T06:03:06;9.97;;;3.73;;
3543;SDS011;1786;52.870;9.578;2023-09-19T06:05:32;6.50;;;3.33;;
3543;SDS011;1786;52.870;9.578;2023-09-19T06:08:00;8.87;;;3.13;;
3543;SDS011;1786;52.870;9.578;2023-09-19T06:10:27;13.37;;;3.50;;
3543;SDS011;1786;52.870;9.578;2023-09-19T06:12:55;7.73;;;3.20;;
3543;SDS011;1786;52.870;9.578;2023-09-19T06:15:25;15.03;;;4.10;;
3543;SDS011;1786;52.870;9.578;2023-09-19T06:17:54;13.87;;;3.40;;
3543;SDS011;1786;52.870;9.578;2023-09-19T06:20:22;5.53;;;2.80;;
3543;SDS011;1786;52.870;9.578;2023-09-19T06:22:50;12.23;;;3.10;;
3543;SDS011;1786;52.870;9.578;2023-09-19T06:25:18;6.90;;;3.23;;
3543;SDS011;1786;52.870;9.578;2023-09-19T06:27:49;10.60;;;3.67;;
3543;SDS011;1786;52.870;9.578;2023-09-19T06:30:20;10.57;;;3.27;;
3543;SDS011;1786;52.870;9.578;2023-09-19T06:32:55;11.30;;;3.73;;
3543;SDS011;1786;52.870;9.578;2023-09-19T06:35:22;10.23;;;3.53;;
3543;SDS011;1786;52.870;9.578;2023-09-19T06:37:49;14.73;;;4.33;;
3543;SDS011;1786;52.870;9.578;2023-09-19T06:40:17;8.40;;;2.53;;
3543;SDS011;1786;52.870;9.578;2023-09-19T06:42:46;7.47;;;2.80;;
3543;SDS011;1786;52.870;9.578;2023-09-19T06:45:16;8.77;;;3.33;;
3543;SDS011;1786;52.870;9.578;2023-09-19T06:47:46;7.50;;;3.40;;
3543;SDS011;1786;52.870;9.578;2023-09-19T06:50:17;8.73;;;3.20;;
3543;SDS011;1786;52.870;9.578;2023-09-19T06:52:46;6.70;;;2.97;;
3543;SDS011;1786;52.870;9.578;2023-09-19T06:55:20;7.57;;;2.80;;
3543;SDS011;1786;52.870;9.578;2023-09-19T06:57:50;9.80;;;2.87;;
3543;SDS011;1786;52.870;9.578;2023-09-19T07:00:17;20.70;;;3.50;;
3543;SDS011;1786;52.870;9.578;2023-09-19T07:02:55;7.40;;;3.13;;
3543;SDS011;1786;52.870;9.578;2023-09-19T07:05:28;13.80;;;3.83;;
3543;SDS011;1786;52.870;9.578;2023-09-19T07:07:55;11.80;;;3.63;;
3543;SDS011;1786;52.870;9.578;2023-09-19T07:10:22;8.47;;;2.60;;
3543;SDS011;1786;52.870;9.578;2023-09-19T07:12:57;6.60;;;2.97;;
3543;SDS011;1786;52.870;9.578;2023-09-19T07:15:27;5.10;;;2.60;;
3543;SDS011;1786;52.870;9.578;2023-09-19T07:17:55;10.10;;;2.33;;
3543;SDS011;1786;52.870;9.578;2023-09-19T07:20:23;11.67;;;2.70;;
3543;SDS011;1786;52.870;9.578;2023-09-19T07:22:58;4.70;;;2.57;;
3543;SDS011;1786;52.870;9.578;2023-09-19T07:25:28;10.00;;;2.83;;
3543;SDS011;1786;52.870;9.578;2023-09-19T07:27:56;6.63;;;2.57;;
3543;SDS011;1786;52.870;9.578;2023-09-19T07:30:26;9.87;;;3.00;;
3543;SDS011;1786;52.870;9.578;2023-09-19T07:32:53;9.37;;;3.30;;
3543;SDS011;1786;52.870;9.578;2023-09-19T07:35:19;12.40;;;3.13;;
3543;SDS011;1786;52.870;9.578;2023-09-19T07:37:47;8.30;;;3.17;;
3543;SDS011;1786;52.870;9.578;2023-09-19T07:40:18;5.83;;;2.27;;
3543;SDS011;1786;52.870;9.578;2023-09-19T07:42:47;10.20;;;3.00;;
3543;SDS011;1786;52.870;9.578;2023-09-19T07:45:13;7.17;;;3.07;;
3543;SDS011;1786;52.870;9.578;2023-09-19T07:47:43;13.83;;;3.30;;
3543;SDS011;1786;52.870;9.578;2023-09-19T07:50:15;7.10;;;3.03;;
3543;SDS011;1786;52.870;9.578;2023-09-19T07:52:43;14.63;;;3.00;;
3543;SDS011;1786;52.870;9.578;2023-09-19T07:55:09;9.33;;;2.67;;
3543;SDS011;1786;52.870;9.578;2023-09-19T07:57:43;12.73;;;2.40;;
3543;SDS011;1786;52.870;9.578;2023-09-19T08:00:10;6.93;;;3.10;;
3543;SDS011;1786;52.870;9.578;2023-09-19T08:02:41;8.47;;;2.53;;
3543;SDS011;1786;52.870;9.578;2023-09-19T08:05:09;4.50;;;2.37;;
3543;SDS011;1786;52.870;9.578;2023-09-19T08:07:39;5.40;;;2.20;;
3543;SDS011;1786;52.870;9.578;2023-09-19T08:10:07;7.13;;;2.87;;
3543;SDS011;1786;52.870;9.578;2023-09-19T08:12:34;7.30;;;2.73;;
3543;SDS011;1786;52.870;9.578;2023-09-19T08:15:04;9.77;;;2.80;;
3543;SDS011;1786;52.870;9.578;2023-09-19T08:17:35;14.63;;;2.00;;
3543;SDS011;1786;52.870;9.578;2023-09-19T08:20:02;9.90;;;2.57;;
3543;SDS011;1786;52.870;9.578;2023-09-19T08:22:32;7.73;;;3.20;;
3543;SDS011;1786;52.870;9.578;2023-09-19T08:24:58;10.27;;;2.80;;
3543;SDS011;1786;52.870;9.578;2023-09-19T08:27:26;4.40;;;2.50;;
3543;SDS011;1786;52.870;9.578;2023-09-19T08:29:55;7.60;;;2.17;;
3543;SDS011;1786;52.870;9.578;2023-09-19T08:32:22;7.07;;;2.70;;
3543;SDS011;1786;52.870;9.578;2023-09-19T08:34:51;10.13;;;2.10;;
3543;SDS011;1786;52.870;9.578;2023-09-19T08:37:17;11.53;;;2.77;;
3543;SDS011;1786;52.870;9.578;2023-09-19T08:39:45;10.30;;;3.07;;
3543;SDS011;1786;52.870;9.578;2023-09-19T08:42:13;9.23;;;2.43;;
3543;SDS011;1786;52.870;9.578;2023-09-19T08:44:40;9.40;;;2.70;;
3543;SDS011;1786;52.870;9.578;2023-09-19T08:47:10;7.57;;;2.70;;
3543;SDS011;1786;52.870;9.578;2023-09-19T08:49:54;16.30;;;2.40;;
3543;SDS011;1786;52.870;9.578;2023-09-19T08:52:32;8.70;;;2.60;;
3543;SDS011;1786;52.870;9.578;2023-09-19T08:55:03;14.17;;;2.83;;
3543;SDS011;1786;52.870;9.578;2023-09-19T08:57:36;7.23;;;2.70;;
3543;SDS011;1786;52.870;9.578;2023-09-19T09:00:08;8.97;;;2.70;;
3543;SDS011;1786;52.870;9.578;2023-09-19T09:02:41;6.93;;;2.20;;
3543;SDS011;1786;52.870;9.578;2023-09-19T09:05:10;8.27;;;2.33;;
3543;SDS011;1786;52.870;9.578;2023-09-19T09:07:41;4.77;;;2.13;;
3543;SDS011;1786;52.870;9.578;2023-09-19T09:10:08;15.60;;;3.00;;
3543;SDS011;1786;52.870;9.578;2023-09-19T09:12:35;4.67;;;2.47;;
3543;SDS011;1786;52.870;9.578;2023-09-19T09:15:07;6.30;;;2.07;;
3543;SDS011;1786;52.870;9.578;2023-09-19T09:17:38;8.23;;;2.33;;
3543;SDS011;1786;52.870;9.578;2023-09-19T09:20:04;7.80;;;2.47;;
3543;SDS011;1786;52.870;9.578;2023-09-19T09:22:37;5.57;;;2.27;;
3543;SDS011;1786;52.870;9.578;2023-09-19T09:25:06;11.53;;;2.73;;
3543;SDS011;1786;52.870;9.578;2023-09-19T09:27:33;6.03;;;2.73;;
3543;SDS011;1786;52.870;9.578;2023-09-19T09:30:00;8.50;;;2.10;;
3543;SDS011;1786;52.870;9.578;2023-09-19T09:32:27;13.83;;;2.17;;
3543;SDS011;1786;52.870;9.578;2023-09-19T09:34:57;2.70;;;1.87;;
3543;SDS011;1786;52.870;9.578;2023-09-19T09:37:28;8.43;;;2.40;;
3543;SDS011;1786;52.870;9.578;2023-09-19T09:40:00;5.10;;;2.13;;
3543;SDS011;1786;52.870;9.578;2023-09-19T09:42:40;5.17;;;2.50;;
3543;SDS011;1786;52.870;9.578;2023-09-19T09:47:46;5.03;;;1.93;;
3543;SDS011;1786;52.870;9.578;2023-09-19T09:50:27;4.43;;;2.03;;
3543;SDS011;1786;52.870;9.578;2023-09-19T09:53:20;17.90;;;2.90;;
3543;SDS011;1786;52.870;9.578;2023-09-19T09:58:37;6.90;;;2.43;;
3543;SDS011;1786;52.870;9.578;2023-09-19T10:01:22;7.03;;;2.40;;
3543;SDS011;1786;52.870;9.578;2023-09-19T10:03:59;5.93;;;2.00;;
3543;SDS011;1786;52.870;9.578;2023-09-19T10:06:39;13.40;;;2.60;;
3543;SDS011;1786;52.870;9.578;2023-09-19T10:09:14;4.10;;;2.30;;
3543;SDS011;1786;52.870;9.578;2023-09-19T10:11:44;7.23;;;2.70;;
3543;SDS011;1786;52.870;9.578;2023-09-19T10:14:14;6.23;;;1.90;;
3543;SDS011;1786;52.870;9.578;2023-09-19T10:16:46;5.50;;;1.80;;
3543;SDS011;1786;52.870;9.578;2023-09-19T10:19:15;10.47;;;2.50;;
3543;SDS011;1786;52.870;9.578;2023-09-19T10:21:49;5.83;;;2.50;;
3543;SDS011;1786;52.870;9.578;2023-09-19T10:24:18;7.07;;;2.30;;
3543;SDS011;1786;52.870;9.578;2023-09-19T10:26:46;5.03;;;2.10;;
3543;SDS011;1786;52.870;9.578;2023-09-19T10:29:17;2.73;;;2.33;;
3543;SDS011;1786;52.870;9.578;2023-09-19T10:31:46;13.73;;;2.40;;
3543;SDS011;1786;52.870;9.578;2023-09-19T10:34:15;5.90;;;2.20;;
3543;SDS011;1786;52.870;9.578;2023-09-19T10:36:46;12.80;;;2.50;;
3543;SDS011;1786;52.870;9.578;2023-09-19T10:39:14;12.77;;;3.40;;
3543;SDS011;1786;52.870;9.578;2023-09-19T10:41:47;5.13;;;2.07;;
3543;SDS011;1786;52.870;9.578;2023-09-19T10:44:21;5.67;;;2.40;;
3543;SDS011;1786;52.870;9.578;2023-09-19T10:46:54;6.30;;;2.10;;
3543;SDS011;1786;52.870;9.578;2023-09-19T10:49:21;5.83;;;2.50;;
3543;SDS011;1786;52.870;9.578;2023-09-19T10:51:49;7.93;;;2.23;;
3543;SDS011;1786;52.870;9.578;2023-09-19T10:54:21;9.13;;;2.20;;
3543;SDS011;1786;52.870;9.578;2023-09-19T10:56:53;3.63;;;1.90;;
3543;SDS011;1786;52.870;9.578;2023-09-19T10:59:21;3.37;;;2.40;;
3543;SDS011;1786;52.870;9.578;2023-09-19T11:01:51;6.73;;;2.67;;
3543;SDS011;1786;52.870;9.578;2023-09-19T11:07:06;8.70;;;2.37;;
3543;SDS011;1786;52.870;9.578;2023-09-19T11:09:45;5.97;;;2.40;;
3543;SDS011;1786;52.870;9.578;2023-09-19T11:18:51;7.23;;;2.63;;
3543;SDS011;1786;52.870;9.578;2023-09-19T11:26:40;9.83;;;2.97;;
3543;SDS011;1786;52.870;9.578;2023-09-19T11:29:27;6.03;;;2.50;;
3543;SDS011;1786;52.870;9.578;2023-09-19T11:31:55;10.30;;;3.40;;
3543;SDS011;1786;52.870;9.578;2023-09-19T11:37:02;9.77;;;2.70;;
3543;SDS011;1786;52.870;9.578;2023-09-19T11:40:05;8.53;;;2.80;;
3543;SDS011;1786;52.870;9.578;2023-09-19T11:42:55;12.30;;;2.57;;
3543;SDS011;1786;52.870;9.578;2023-09-19T11:48:07;5.83;;;2.37;;
3543;SDS011;1786;52.870;9.578;2023-09-19T11:50:35;11.80;;;2.53;;
3543;SDS011;1786;52.870;9.578;2023-09-19T11:53:04;10.53;;;3.23;;
3543;SDS011;1786;52.870;9.578;2023-09-19T11:55:32;6.00;;;2.43;;
3543;SDS011;1786;52.870;9.578;2023-09-19T11:58:00;5.00;;;2.30;;
3543;SDS011;1786;52.870;9.578;2023-09-19T12:00:27;5.13;;;2.03;;
3543;SDS011;1786;52.870;9.578;2023-09-19T12:02:55;4.30;;;2.10;;
3543;SDS011;1786;52.870;9.578;2023-09-19T12:05:30;9.40;;;2.70;;
3543;SDS011;1786;52.870;9.578;2023-09-19T12:07:59;7.50;;;2.53;;
3543;SDS011;1786;52.870;9.578;2023-09-19T12:10:27;10.37;;;2.73;;
3543;SDS011;1786;52.870;9.578;2023-09-19T12:12:54;8.37;;;2.30;;
3543;SDS011;1786;52.870;9.578;2023-09-19T12:15:23;7.63;;;2.00;;
3543;SDS011;1786;52.870;9.578;2023-09-19T12:17:55;6.93;;;2.40;;
3543;SDS011;1786;52.870;9.578;2023-09-19T12:20:22;7.20;;;3.37;;
3543;SDS011;1786;52.870;9.578;2023-09-19T12:22:49;12.10;;;2.80;;
3543;SDS011;1786;52.870;9.578;2023-09-19T12:25:16;11.40;;;2.37;;
3543;SDS011;1786;52.870;9.578;2023-09-19T12:27:48;5.27;;;2.60;;
3543;SDS011;1786;52.870;9.578;2023-09-19T12:30:19;5.67;;;2.40;;
3543;SDS011;1786;52.870;9.578;2023-09-19T12:32:53;7.37;;;2.33;;
3543;SDS011;1786;52.870;9.578;2023-09-19T12:35:32;11.43;;;2.47;;
3543;SDS011;1786;52.870;9.578;2023-09-19T12:38:03;8.10;;;2.40;;
3543;SDS011;1786;52.870;9.578;2023-09-19T12:40:30;5.97;;;2.00;;
3543;SDS011;1786;52.870;9.578;2023-09-19T12:43:00;5.33;;;2.60;;
3543;SDS011;1786;52.870;9.578;2023-09-19T12:45:29;5.60;;;2.70;;
3543;SDS011;1786;52.870;9.578;2023-09-19T12:51:00;5.03;;;2.63;;
3543;SDS011;1786;52.870;9.578;2023-09-19T12:53:35;6.23;;;2.33;;
3543;SDS011;1786;52.870;9.578;2023-09-19T12:56:10;6.67;;;2.67;;
3543;SDS011;1786;52.870;9.578;2023-09-19T13:01:15;12.57;;;3.50;;
3543;SDS011;1786;52.870;9.578;2023-09-19T13:03:43;5.50;;;2.80;;
3543;SDS011;1786;52.870;9.578;2023-09-19T13:06:10;10.27;;;2.83;;
3543;SDS011;1786;52.870;9.578;2023-09-19T13:08:38;7.50;;;3.03;;
3543;SDS011;1786;52.870;9.578;2023-09-19T13:11:12;12.20;;;3.60;;
3543;SDS011;1786;52.870;9.578;2023-09-19T13:13:47;6.80;;;3.27;;
3543;SDS011;1786;52.870;9.578;2023-09-19T13:16:21;9.97;;;2.80;;
3543;SDS011;1786;52.870;9.578;2023-09-19T13:18:53;6.47;;;2.60;;
3543;SDS011;1786;52.870;9.578;2023-09-19T13:21:32;6.17;;;2.90;;
3543;SDS011;1786;52.870;9.578;2023-09-19T13:24:23;5.23;;;2.60;;
3543;SDS011;1786;52.870;9.578;2023-09-19T13:26:54;5.43;;;2.50;;
3543;SDS011;1786;52.870;9.578;2023-09-19T13:29:22;11.97;;;4.90;;
3543;SDS011;1786;52.870;9.578;2023-09-19T13:31:49;7.37;;;2.70;;
3543;SDS011;1786;52.870;9.578;2023-09-19T13:34:20;4.97;;;2.50;;
3543;SDS011;1786;52.870;9.578;2023-09-19T13:36:47;7.80;;;3.23;;
3543;SDS011;1786;52.870;9.578;2023-09-19T13:39:15;12.47;;;3.40;;
3543;SDS011;1786;52.870;9.578;2023-09-19T13:41:46;6.90;;;2.70;;
3543;SDS011;1786;52.870;9.578;2023-09-19T13:44:14;11.20;;;3.30;;
3543;SDS011;1786;52.870;9.578;2023-09-19T13:46:43;7.40;;;2.47;;
3543;SDS011;1786;52.870;9.578;2023-09-19T13:49:13;6.33;;;2.70;;
3543;SDS011;1786;52.870;9.578;2023-09-19T13:51:40;9.67;;;3.60;;
3543;SDS011;1786;52.870;9.578;2023-09-19T13:54:10;6.73;;;2.77;;
3543;SDS011;1786;52.870;9.578;2023-09-19T13:56:39;12.17;;;2.90;;
3543;SDS011;1786;52.870;9.578;2023-09-19T13:59:06;8.07;;;2.43;;
3543;SDS011;1786;52.870;9.578;2023-09-19T14:01:33;6.13;;;2.80;;
3543;SDS011;1786;52.870;9.578;2023-09-19T14:04:00;7.83;;;3.17;;
3543;SDS011;1786;52.870;9.578;2023-09-19T14:06:27;5.73;;;2.60;;
3543;SDS011;1786;52.870;9.578;2023-09-19T14:08:53;5.33;;;2.80;;
3543;SDS011;1786;52.870;9.578;2023-09-19T14:11:20;6.73;;;2.80;;
3543;SDS011;1786;52.870;9.578;2023-09-19T14:13:47;8.17;;;2.40;;
3543;SDS011;1786;52.870;9.578;2023-09-19T14:16:16;15.83;;;2.87;;
3543;SDS011;1786;52.870;9.578;2023-09-19T14:18:44;7.47;;;2.93;;
3543;SDS011;1786;52.870;9.578;2023-09-19T14:21:12;10.93;;;3.20;;
3543;SDS011;1786;52.870;9.578;2023-09-19T14:23:39;5.53;;;2.63;;
3543;SDS011;1786;52.870;9.578;2023-09-19T14:26:06;12.97;;;2.87;;
3543;SDS011;1786;52.870;9.578;2023-09-19T14:28:33;10.57;;;3.10;;
3543;SDS011;1786;52.870;9.578;2023-09-19T14:31:06;13.80;;;3.07;;
3543;SDS011;1786;52.870;9.578;2023-09-19T14:33:34;5.50;;;2.20;;
3543;SDS011;1786;52.870;9.578;2023-09-19T14:36:02;10.50;;;2.90;;
3543;SDS011;1786;52.870;9.578;2023-09-19T14:38:35;4.27;;;2.37;;
3543;SDS011;1786;52.870;9.578;2023-09-19T14:41:02;8.90;;;2.27;;
3543;SDS011;1786;52.870;9.578;2023-09-19T14:43:31;14.80;;;3.50;;
3543;SDS011;1786;52.870;9.578;2023-09-19T14:46:03;8.77;;;2.43;;
3543;SDS011;1786;52.870;9.578;2023-09-19T14:48:30;8.73;;;2.97;;
3543;SDS011;1786;52.870;9.578;2023-09-19T14:51:01;8.63;;;3.00;;
3543;SDS011;1786;52.870;9.578;2023-09-19T14:53:31;10.70;;;2.87;;
3543;SDS011;1786;52.870;9.578;2023-09-19T14:56:01;8.23;;;2.53;;
3543;SDS011;1786;52.870;9.578;2023-09-19T14:58:32;13.70;;;2.50;;
3543;SDS011;1786;52.870;9.578;2023-09-19T15:01:06;6.30;;;2.53;;
3543;SDS011;1786;52.870;9.578;2023-09-19T15:03:34;7.60;;;2.43;;
3543;SDS011;1786;52.870;9.578;2023-09-19T15:06:05;7.90;;;2.50;;
3543;SDS011;1786;52.870;9.578;2023-09-19T15:08:37;6.77;;;2.63;;
3543;SDS011;1786;52.870;9.578;2023-09-19T15:11:07;7.40;;;2.33;;
3543;SDS011;1786;52.870;9.578;2023-09-19T15:13:34;8.83;;;2.83;;
3543;SDS011;1786;52.870;9.578;2023-09-19T15:16:03;7.73;;;2.40;;
3543;SDS011;1786;52.870;9.578;2023-09-19T15:18:31;5.67;;;2.57;;
3543;SDS011;1786;52.870;9.578;2023-09-19T15:21:00;12.10;;;3.33;;
3543;SDS011;1786;52.870;9.578;2023-09-19T15:23:27;11.30;;;2.50;;
3543;SDS011;1786;52.870;9.578;2023-09-19T15:25:58;5.93;;;2.30;;
3543;SDS011;1786;52.870;9.578;2023-09-19T15:28:25;10.90;;;2.17;;
3543;SDS011;1786;52.870;9.578;2023-09-19T15:33:55;7.93;;;2.50;;
3543;SDS011;1786;52.870;9.578;2023-09-19T15:36:22;8.57;;;2.77;;
3543;SDS011;1786;52.870;9.578;2023-09-19T15:41:26;7.80;;;2.47;;
3543;SDS011;1786;52.870;9.578;2023-09-19T15:43:54;8.40;;;2.70;;
3543;SDS011;1786;52.870;9.578;2023-09-19T15:46:21;7.67;;;2.37;;
3543;SDS011;1786;52.870;9.578;2023-09-19T15:48:48;7.83;;;1.90;;
3543;SDS011;1786;52.870;9.578;2023-09-19T15:51:14;4.37;;;2.00;;
3543;SDS011;1786;52.870;9.578;2023-09-19T15:53:48;9.13;;;2.27;;
3543;SDS011;1786;52.870;9.578;2023-09-19T15:56:16;7.00;;;1.77;;
3543;SDS011;1786;52.870;9.578;2023-09-19T15:58:44;1.90;;;1.57;;
3543;SDS011;1786;52.870;9.578;2023-09-19T16:01:11;10.57;;;2.50;;
3543;SDS011;1786;52.870;9.578;2023-09-19T16:03:39;3.50;;;1.97;;
3543;SDS011;1786;52.870;9.578;2023-09-19T16:11:08;8.67;;;2.50;;
3543;SDS011;1786;52.870;9.578;2023-09-19T16:13:39;6.30;;;2.30;;
3543;SDS011;1786;52.870;9.578;2023-09-19T16:16:08;15.83;;;2.83;;